createdAt,value
2022-12-14T00:02:08.784Z,-7.78
2022-12-14T00:04:37.020Z,-7.72
2022-12-14T00:07:05.100Z,-7.57
2022-12-14T00:09:33.093Z,-7.60
2022-12-14T00:12:01.102Z,-7.65
2022-12-14T00:14:29.237Z,-7.63
2022-12-14T00:16:57.219Z,-7.52
2022-12-14T00:19:25.394Z,-7.52
2022-12-14T00:21:53.472Z,-7.48
2022-12-14T00:24:21.407Z,-7.48
2022-12-14T00:26:50.644Z,-7.56
2022-12-14T00:29:18.711Z,-7.56
2022-12-14T00:31:49.141Z,-7.65
2022-12-14T00:34:17.644Z,-7.67
2022-12-14T00:36:46.163Z,-7.67
2022-12-14T00:39:14.281Z,-7.56
2022-12-14T00:41:43.416Z,-7.45
2022-12-14T00:44:11.542Z,-7.38
2022-12-14T00:46:39.665Z,-7.33
2022-12-14T00:49:07.901Z,-7.30
2022-12-14T00:51:36.028Z,-7.39
2022-12-14T00:54:04.105Z,-7.52
2022-12-14T00:56:32.374Z,-7.57
2022-12-14T00:59:00.574Z,-7.60
2022-12-14T01:01:30.643Z,-7.49
2022-12-14T01:04:17.397Z,-7.42
2022-12-14T01:06:51.058Z,-7.41
2022-12-14T01:09:20.640Z,-7.50
2022-12-14T01:11:48.680Z,-7.62
2022-12-14T01:14:18.751Z,-7.65
2022-12-14T01:16:46.825Z,-7.67
2022-12-14T01:19:16.204Z,-7.73
2022-12-14T01:21:44.814Z,-7.79
2022-12-14T01:24:12.810Z,-7.75
2022-12-14T01:26:40.962Z,-7.76
2022-12-14T01:29:09.040Z,-7.85
2022-12-14T01:31:39.363Z,-7.90
2022-12-14T01:34:08.388Z,-7.91
2022-12-14T01:36:37.730Z,-7.88
2022-12-14T01:39:13.910Z,-7.84
2022-12-14T01:41:52.181Z,-7.80
2022-12-14T01:44:20.104Z,-7.77
2022-12-14T01:46:50.414Z,-7.81
2022-12-14T01:49:45.576Z,-7.76
2022-12-14T01:52:35.880Z,-7.60
2022-12-14T01:55:10.276Z,-7.64
2022-12-14T01:58:05.217Z,-7.64
2022-12-14T02:00:33.401Z,-7.74
2022-12-14T02:03:04.172Z,-7.86
2022-12-14T02:05:35.453Z,-7.75
2022-12-14T02:08:05.159Z,-7.75
2022-12-14T02:10:34.163Z,-7.83
2022-12-14T02:13:10.016Z,-7.75
2022-12-14T02:15:39.485Z,-7.79
2022-12-14T02:18:12.685Z,-7.88
2022-12-14T02:20:50.912Z,-7.94
2022-12-14T02:23:33.308Z,-7.96
2022-12-14T02:26:22.592Z,-7.91
2022-12-14T02:29:23.739Z,-7.93
2022-12-14T02:32:15.904Z,-7.92
2022-12-14T02:34:53.058Z,-7.88
2022-12-14T02:37:42.475Z,-7.76
2022-12-14T02:40:24.986Z,-7.79
2022-12-14T02:43:05.866Z,-7.82
2022-12-14T02:45:50.549Z,-7.81
2022-12-14T02:48:29.577Z,-7.82
2022-12-14T02:51:42.184Z,-7.76
2022-12-14T02:54:17.975Z,-7.77
2022-12-14T02:56:53.697Z,-7.75
2022-12-14T02:59:24.173Z,-7.67
2022-12-14T03:01:53.607Z,-7.71
2022-12-14T03:04:21.876Z,-7.81
2022-12-14T03:07:28.959Z,-7.74
2022-12-14T03:10:18.962Z,-7.64
2022-12-14T03:12:55.271Z,-7.59
2022-12-14T03:15:26.135Z,-7.56
2022-12-14T03:17:59.021Z,-7.61
2022-12-14T03:20:31.297Z,-7.58
2022-12-14T03:23:05.256Z,-7.48
2022-12-14T03:25:35.745Z,-7.52
2022-12-14T03:28:12.118Z,-7.47
2022-12-14T03:31:00.081Z,-7.47
2022-12-14T03:33:31.529Z,-7.49
2022-12-14T03:36:15.792Z,-7.50
2022-12-14T03:38:47.546Z,-7.47
2022-12-14T03:41:41.872Z,-7.49
2022-12-14T03:45:01.229Z,-7.41
2022-12-14T03:47:38.217Z,-7.49
2022-12-14T03:50:13.940Z,-7.57
2022-12-14T03:53:06.864Z,-7.59
2022-12-14T03:56:09.519Z,-7.60
2022-12-14T03:58:46.608Z,-7.69
2022-12-14T04:01:22.246Z,-7.66
2022-12-14T04:03:57.400Z,-7.75
2022-12-14T04:06:31.470Z,-7.76
2022-12-14T04:09:08.623Z,-7.70
2022-12-14T04:12:02.531Z,-7.73
2022-12-14T04:14:53.919Z,-7.77
2022-12-14T04:17:46.784Z,-7.78
2022-12-14T04:21:00.940Z,-7.78
2022-12-14T04:23:54.174Z,-7.74
2022-12-14T04:26:29.175Z,-7.73
2022-12-14T04:29:23.386Z,-7.68
2022-12-14T04:32:02.305Z,-7.70
2022-12-14T04:34:32.510Z,-7.79
2022-12-14T04:37:05.293Z,-7.77
2022-12-14T04:39:44.563Z,-7.75
2022-12-14T04:42:16.018Z,-7.73
2022-12-14T04:44:53.255Z,-7.70
2022-12-14T04:47:26.680Z,-7.72
2022-12-14T04:50:08.475Z,-7.73
2022-12-14T04:52:45.664Z,-7.81
2022-12-14T04:55:25.679Z,-7.90
2022-12-14T04:58:02.815Z,-8.00
2022-12-14T05:00:35.014Z,-8.09
2022-12-14T05:03:13.309Z,-8.10
2022-12-14T05:06:07.596Z,-8.02
2022-12-14T05:08:57.616Z,-7.98
2022-12-14T05:11:53.131Z,-8.00
2022-12-14T05:14:33.904Z,-7.86
2022-12-14T05:17:09.010Z,-7.83
2022-12-14T05:19:44.373Z,-7.77
2022-12-14T05:22:18.292Z,-7.75
2022-12-14T05:24:46.871Z,-7.74
2022-12-14T05:27:14.968Z,-7.72
2022-12-14T05:29:43.102Z,-7.74
2022-12-14T05:32:12.976Z,-7.72
2022-12-14T05:34:41.244Z,-7.66
2022-12-14T05:37:16.217Z,-7.70
2022-12-14T05:39:46.487Z,-7.64
2022-12-14T05:42:14.681Z,-7.54
2022-12-14T05:44:42.969Z,-7.50
2022-12-14T05:47:11.125Z,-7.48
2022-12-14T05:49:39.691Z,-7.38
2022-12-14T05:52:07.795Z,-7.36
2022-12-14T05:54:36.080Z,-7.26
2022-12-14T05:57:04.154Z,-7.21
2022-12-14T05:59:32.356Z,-7.09
2022-12-14T06:02:00.711Z,-7.05
2022-12-14T06:04:28.931Z,-7.01
2022-12-14T06:06:56.998Z,-7.02
2022-12-14T06:09:25.014Z,-7.04
2022-12-14T06:11:53.089Z,-6.95
2022-12-14T06:14:21.364Z,-6.98
2022-12-14T06:16:49.536Z,-7.00
2022-12-14T06:19:17.717Z,-6.82
2022-12-14T06:21:46.195Z,-6.78
2022-12-14T06:24:14.676Z,-6.78
2022-12-14T06:26:42.994Z,-6.81
2022-12-14T06:29:17.999Z,-6.82
2022-12-14T06:31:49.217Z,-6.71
2022-12-14T06:34:20.384Z,-6.63
2022-12-14T06:36:51.636Z,-6.51
2022-12-14T06:39:19.810Z,-6.44
2022-12-14T06:41:53.720Z,-6.45
2022-12-14T06:44:21.806Z,-6.32
2022-12-14T06:46:49.893Z,-6.30
2022-12-14T06:49:18.134Z,-6.26
2022-12-14T06:51:46.258Z,-6.21
2022-12-14T06:54:15.787Z,-6.11
2022-12-14T06:56:46.492Z,-5.95
2022-12-14T06:59:15.842Z,-5.89
2022-12-14T07:01:44.269Z,-5.79
2022-12-14T07:04:12.428Z,-5.72
2022-12-14T07:06:41.287Z,-5.63
2022-12-14T07:09:13.608Z,-5.56
2022-12-14T07:11:42.135Z,-5.56
2022-12-14T07:14:16.162Z,-5.51
2022-12-14T07:16:48.290Z,-5.55
2022-12-14T07:19:18.034Z,-5.40
2022-12-14T07:21:46.360Z,-5.34
2022-12-14T07:24:15.112Z,-5.36
2022-12-14T07:26:43.391Z,-5.32
2022-12-14T07:29:12.286Z,-5.32
2022-12-14T07:31:40.752Z,-5.33
2022-12-14T07:34:12.629Z,-5.28
2022-12-14T07:36:45.117Z,-5.27
2022-12-14T07:39:17.040Z,-5.14
2022-12-14T07:41:47.149Z,-5.13
2022-12-14T07:44:19.689Z,-5.09
2022-12-14T07:46:47.774Z,-5.10
2022-12-14T07:49:16.026Z,-5.13
2022-12-14T07:51:47.099Z,-5.22
2022-12-14T07:54:16.320Z,-5.14
2022-12-14T07:56:44.772Z,-5.19
2022-12-14T07:59:19.291Z,-5.22
2022-12-14T08:01:48.942Z,-5.22
2022-12-14T08:04:18.683Z,-5.36
2022-12-14T08:06:48.301Z,-5.38
2022-12-14T08:09:17.445Z,-5.33
2022-12-14T08:11:46.064Z,-5.26
2022-12-14T08:14:17.544Z,-5.18
2022-12-14T08:16:47.844Z,-5.10
2022-12-14T08:19:16.878Z,-5.06
2022-12-14T08:21:45.932Z,-4.89
2022-12-14T08:24:16.089Z,-4.90
2022-12-14T08:26:48.990Z,-4.82
2022-12-14T08:29:19.030Z,-4.79
2022-12-14T08:31:48.248Z,-4.72
2022-12-14T08:34:22.964Z,-4.60
2022-12-14T08:36:51.479Z,-4.50
2022-12-14T08:39:19.873Z,-4.43
2022-12-14T08:41:47.987Z,-4.35
2022-12-14T08:44:17.665Z,-4.34
2022-12-14T08:46:45.736Z,-4.36
2022-12-14T08:49:14.080Z,-4.27
2022-12-14T08:51:42.461Z,-4.21
2022-12-14T08:54:11.479Z,-4.11
2022-12-14T08:56:39.777Z,-4.17
2022-12-14T08:59:07.916Z,-4.08
2022-12-14T09:01:36.420Z,-3.87
2022-12-14T09:04:07.863Z,-3.74
2022-12-14T09:06:39.290Z,-3.56
2022-12-14T09:09:15.468Z,-3.40
2022-12-14T09:11:45.452Z,-3.26
2022-12-14T09:14:14.280Z,-3.22
2022-12-14T09:16:42.772Z,-3.19
2022-12-14T09:19:10.956Z,-3.31
2022-12-14T09:21:40.092Z,-3.32
2022-12-14T09:24:09.747Z,-3.23
2022-12-14T09:26:38.286Z,-3.00
2022-12-14T09:29:06.780Z,-2.84
2022-12-14T09:31:35.130Z,-2.71
2022-12-14T09:34:04.362Z,-2.66
2022-12-14T09:36:33.729Z,-2.60
2022-12-14T09:39:03.028Z,-2.69
2022-12-14T09:41:33.964Z,-2.58
2022-12-14T09:44:25.121Z,-2.51
2022-12-14T09:47:24.045Z,-2.51
2022-12-14T09:49:55.259Z,-2.42
2022-12-14T09:52:34.292Z,-2.47
2022-12-14T09:55:12.119Z,-2.24
2022-12-14T09:57:42.391Z,-2.12
2022-12-14T10:00:18.143Z,-2.04
2022-12-14T10:03:06.364Z,-2.12
2022-12-14T10:05:38.349Z,-2.15
2022-12-14T10:08:30.084Z,-2.22
2022-12-14T10:11:10.339Z,-2.25
2022-12-14T10:14:06.725Z,-2.33
2022-12-14T10:16:51.637Z,-2.41
2022-12-14T10:19:40.663Z,-2.39
2022-12-14T10:22:12.314Z,-2.35
2022-12-14T10:24:48.380Z,-2.32
2022-12-14T10:27:23.409Z,-2.32
2022-12-14T10:30:00.258Z,-2.29
2022-12-14T10:32:37.670Z,-2.29
2022-12-14T10:35:18.682Z,-2.36
2022-12-14T10:38:03.991Z,-2.43
2022-12-14T10:40:35.410Z,-2.49
2022-12-14T10:43:25.326Z,-2.56
2022-12-14T10:45:56.331Z,-2.62
2022-12-14T10:49:02.431Z,-2.62
2022-12-14T10:51:47.201Z,-2.61
2022-12-14T10:54:24.583Z,-2.66
2022-12-14T10:56:52.963Z,-2.65
2022-12-14T10:59:21.442Z,-2.62
2022-12-14T11:02:16.326Z,-2.58
2022-12-14T11:04:54.040Z,-2.54
2022-12-14T11:07:25.515Z,-2.53
2022-12-14T11:09:53.900Z,-2.57
2022-12-14T11:12:26.170Z,-2.66
2022-12-14T11:15:03.450Z,-2.68
2022-12-14T11:17:37.438Z,-2.69
2022-12-14T11:20:08.992Z,-2.64
2022-12-14T11:22:47.920Z,-2.62
2022-12-14T11:25:41.414Z,-2.54
2022-12-14T11:28:28.113Z,-2.49
2022-12-14T11:31:04.460Z,-2.42
2022-12-14T11:33:49.954Z,-2.29
2022-12-14T11:36:40.402Z,-2.20
2022-12-14T11:39:14.315Z,-2.08
2022-12-14T11:41:46.724Z,-2.07
2022-12-14T11:44:15.711Z,-2.07
2022-12-14T11:46:44.931Z,-2.03
2022-12-14T11:49:39.919Z,-2.01
2022-12-14T11:52:08.743Z,-1.82
2022-12-14T11:54:50.034Z,-1.74
2022-12-14T11:57:24.842Z,-1.65
2022-12-14T12:00:07.075Z,-1.68
2022-12-14T12:02:39.436Z,-1.63
2022-12-14T12:05:23.207Z,-1.50
2022-12-14T12:07:51.192Z,-1.40
2022-12-14T12:10:23.237Z,-1.42
2022-12-14T12:12:55.448Z,-1.53
2022-12-14T12:15:50.006Z,-1.48
2022-12-14T12:18:47.052Z,-1.39
2022-12-14T12:21:26.704Z,-1.40
2022-12-14T12:24:01.204Z,-1.39
2022-12-14T12:26:35.445Z,-1.41
2022-12-14T12:29:26.611Z,-1.34
2022-12-14T12:32:24.159Z,-1.33
2022-12-14T12:35:01.378Z,-1.28
2022-12-14T12:37:40.493Z,-1.24
2022-12-14T12:40:21.248Z,-1.28
2022-12-14T12:42:57.156Z,-1.28
2022-12-14T12:45:39.744Z,-1.26
2022-12-14T12:48:45.332Z,-1.36
2022-12-14T12:51:20.291Z,-1.32
2022-12-14T12:53:56.566Z,-1.28
2022-12-14T12:56:49.886Z,-1.21
2022-12-14T12:59:31.133Z,-1.24
2022-12-14T13:02:06.957Z,-1.20
2022-12-14T13:04:41.042Z,-1.19
2022-12-14T13:07:30.203Z,-1.17
2022-12-14T13:10:06.787Z,-1.08
2022-12-14T13:13:15.762Z,-1.25
2022-12-14T13:15:53.077Z,-1.27
2022-12-14T13:18:56.016Z,-1.22
2022-12-14T13:21:27.677Z,-1.19
2022-12-14T13:23:56.581Z,-1.27
2022-12-14T13:26:59.393Z,-1.28
2022-12-14T13:29:53.633Z,-1.27
2022-12-14T13:32:46.066Z,-1.23
2022-12-14T13:35:26.870Z,-1.18
2022-12-14T13:38:13.784Z,-1.30
2022-12-14T13:41:07.581Z,-1.19
2022-12-14T13:43:47.716Z,-1.18
2022-12-14T13:46:24.242Z,-1.16
2022-12-14T13:48:55.559Z,-1.19
2022-12-14T13:51:31.969Z,-1.17
2022-12-14T13:54:03.717Z,-1.19
2022-12-14T13:56:37.711Z,-1.16
2022-12-14T13:59:24.795Z,-1.26
2022-12-14T14:01:56.650Z,-1.24
2022-12-14T14:04:27.562Z,-1.23
2022-12-14T14:07:25.091Z,-1.23
2022-12-14T14:09:56.546Z,-1.27
2022-12-14T14:12:51.004Z,-1.25
2022-12-14T14:15:35.522Z,-1.32
2022-12-14T14:18:14.637Z,-1.25
2022-12-14T14:20:46.950Z,-1.25
2022-12-14T14:23:16.003Z,-1.20
2022-12-14T14:25:53.008Z,-1.20
2022-12-14T14:28:28.711Z,-1.26
2022-12-14T14:30:58.816Z,-1.28
2022-12-14T14:33:47.675Z,-1.34
2022-12-14T14:36:36.093Z,-1.41
2022-12-14T14:39:31.431Z,-1.50
2022-12-14T14:41:58.642Z,-1.59
2022-12-14T14:44:42.970Z,-1.63
2022-12-14T14:47:40.398Z,-1.68
2022-12-14T14:50:22.976Z,-1.72
2022-12-14T14:52:59.205Z,-1.76
2022-12-14T14:58:26.677Z,-1.69
2022-12-14T15:01:15.649Z,-1.71
2022-12-14T15:03:59.768Z,-1.70
2022-12-14T15:06:39.531Z,-1.74
2022-12-14T15:09:19.280Z,-1.75
2022-12-14T15:11:48.964Z,-1.75
2022-12-14T15:14:20.561Z,-1.80
2022-12-14T15:16:48.873Z,-1.79
2022-12-14T15:19:25.896Z,-1.74
2022-12-14T15:22:13.243Z,-1.73
2022-12-14T15:24:44.734Z,-1.75
2022-12-14T15:27:28.134Z,-1.76
2022-12-14T15:30:01.519Z,-1.71
2022-12-14T15:32:30.631Z,-1.71
2022-12-14T15:35:02.025Z,-1.76
2022-12-14T15:37:54.867Z,-1.78
2022-12-14T15:40:30.652Z,-1.76
2022-12-14T15:43:16.289Z,-1.71
2022-12-14T15:45:48.516Z,-1.75
2022-12-14T15:48:28.247Z,-1.77
2022-12-14T15:51:00.635Z,-1.78
2022-12-14T15:53:33.534Z,-1.73
2022-12-14T15:56:29.933Z,-1.73
2022-12-14T15:59:01.179Z,-1.70
2022-12-14T16:01:40.547Z,-1.66
2022-12-14T16:04:15.518Z,-1.66
2022-12-14T16:06:49.357Z,-1.59
2022-12-14T16:09:27.006Z,-1.59
2022-12-14T16:11:59.547Z,-1.59
2022-12-14T16:14:44.421Z,-1.67
2022-12-14T16:17:25.353Z,-1.66
2022-12-14T16:20:18.409Z,-1.62
2022-12-14T16:22:59.362Z,-1.57
2022-12-14T16:25:28.945Z,-1.57
2022-12-14T16:27:57.382Z,-1.56
2022-12-14T16:30:34.189Z,-1.58
2022-12-14T16:33:05.151Z,-1.58
2022-12-14T16:35:37.041Z,-1.53
2022-12-14T16:38:08.493Z,-1.53
2022-12-14T16:40:39.520Z,-1.51
2022-12-14T16:43:24.137Z,-1.46
2022-12-14T16:46:06.221Z,-1.42
2022-12-14T16:48:41.425Z,-1.41
2022-12-14T16:52:06.765Z,-1.30
2022-12-14T16:54:29.150Z,-1.46
2022-12-14T16:57:00.735Z,-1.39
2022-12-14T16:59:37.130Z,-1.38
2022-12-14T17:02:18.146Z,-1.37
2022-12-14T17:04:46.902Z,-1.34
2022-12-14T17:07:15.741Z,-1.33
2022-12-14T17:09:43.922Z,-1.29
2022-12-14T17:12:15.944Z,-1.32
2022-12-14T17:14:49.849Z,-1.37
2022-12-14T17:17:32.224Z,-1.39
2022-12-14T17:20:02.136Z,-1.36
2022-12-14T17:22:33.365Z,-1.39
2022-12-14T17:25:02.713Z,-1.38
2022-12-14T17:27:31.125Z,-1.39
2022-12-14T17:29:59.417Z,-1.44
2022-12-14T17:32:32.550Z,-1.47
2022-12-14T17:35:01.420Z,-1.49
2022-12-14T17:37:36.142Z,-1.51
2022-12-14T17:40:05.488Z,-1.51
2022-12-14T17:42:34.142Z,-1.48
2022-12-14T17:45:02.250Z,-1.46
2022-12-14T17:47:30.500Z,-1.47
2022-12-14T17:49:58.576Z,-1.42
2022-12-14T17:52:32.510Z,-1.40
2022-12-14T17:55:00.664Z,-1.50
2022-12-14T17:57:29.087Z,-1.53
2022-12-14T18:00:15.969Z,-1.56
2022-12-14T18:02:45.877Z,-1.55
2022-12-14T18:05:19.243Z,-1.56
2022-12-14T18:07:49.472Z,-1.56
2022-12-14T18:10:18.680Z,-1.53
2022-12-14T18:12:47.318Z,-1.57
2022-12-14T18:15:39.817Z,-1.58
2022-12-14T18:18:08.567Z,-1.58
2022-12-14T18:20:37.353Z,-1.60
2022-12-14T18:23:05.838Z,-1.59
2022-12-14T18:25:41.100Z,-1.61
2022-12-14T18:28:12.749Z,-1.61
2022-12-14T18:30:49.475Z,-1.60
2022-12-14T18:33:21.393Z,-1.60
2022-12-14T18:35:50.531Z,-1.63
2022-12-14T18:38:18.679Z,-1.61
2022-12-14T18:40:49.943Z,-1.63
2022-12-14T18:43:21.660Z,-1.61
2022-12-14T18:45:52.271Z,-1.65
2022-12-14T18:48:20.954Z,-1.62
2022-12-14T18:50:49.637Z,-1.64
2022-12-14T18:53:20.156Z,-1.71
2022-12-14T18:55:49.072Z,-1.74
2022-12-14T18:58:25.814Z,-1.67
2022-12-14T19:00:56.659Z,-1.62
2022-12-14T19:03:25.917Z,-1.66
2022-12-14T19:06:34.398Z,-1.68
2022-12-14T19:08:52.120Z,-1.73
2022-12-14T19:11:29.945Z,-1.75
2022-12-14T19:13:58.413Z,-1.76
2022-12-14T19:16:27.032Z,-1.76
2022-12-14T19:18:55.288Z,-1.80
2022-12-14T19:21:26.368Z,-1.80
2022-12-14T19:23:55.868Z,-1.80
2022-12-14T19:26:23.924Z,-1.79
2022-12-14T19:28:51.915Z,-1.80
2022-12-14T19:31:20.331Z,-1.83
2022-12-14T19:33:48.455Z,-1.84
2022-12-14T19:36:16.653Z,-1.84
2022-12-14T19:38:45.040Z,-1.80
2022-12-14T19:41:20.579Z,-1.75
2022-12-14T19:43:48.973Z,-1.80
2022-12-14T19:46:18.147Z,-1.79
2022-12-14T19:48:46.456Z,-1.81
2022-12-14T19:51:15.592Z,-1.82
2022-12-14T19:53:45.061Z,-1.81
2022-12-14T19:56:18.302Z,-1.82
2022-12-14T19:58:47.910Z,-1.85
2022-12-14T20:01:17.919Z,-1.87
2022-12-14T20:03:46.460Z,-1.87
2022-12-14T20:06:14.684Z,-1.85
2022-12-14T20:08:43.277Z,-1.83
2022-12-14T20:11:12.089Z,-1.84
2022-12-14T20:13:40.365Z,-1.85
2022-12-14T20:16:16.531Z,-1.88
2022-12-14T20:18:45.211Z,-1.86
2022-12-14T20:21:21.877Z,-1.79
2022-12-14T20:23:51.103Z,-1.73
2022-12-14T20:26:21.996Z,-1.82
2022-12-14T20:28:52.411Z,-1.78
2022-12-14T20:31:22.506Z,-1.76
2022-12-14T20:33:50.989Z,-1.79
2022-12-14T20:36:22.227Z,-1.81
2022-12-14T20:38:55.276Z,-1.82
2022-12-14T20:41:24.139Z,-1.74
2022-12-14T20:43:52.036Z,-1.71
2022-12-14T20:46:27.755Z,-1.70
2022-12-14T20:48:56.923Z,-1.70
2022-12-14T20:51:25.044Z,-1.72
2022-12-14T20:53:53.326Z,-1.71
2022-12-14T20:56:21.913Z,-1.72
2022-12-14T20:58:49.960Z,-1.72
2022-12-14T21:01:19.464Z,-1.69
2022-12-14T21:03:50.483Z,-1.67
2022-12-14T21:06:21.513Z,-1.72
2022-12-14T21:09:09.466Z,-1.68
2022-12-14T21:11:59.499Z,-1.64
2022-12-14T21:14:37.129Z,-1.72
2022-12-14T21:17:06.282Z,-1.67
2022-12-14T21:19:36.165Z,-1.67
2022-12-14T21:22:06.184Z,-1.62
2022-12-14T21:27:26.676Z,-1.57
2022-12-14T21:29:54.989Z,-1.65
2022-12-14T21:32:23.373Z,-1.76
2022-12-14T21:34:52.390Z,-1.66
2022-12-14T21:37:21.030Z,-1.60
2022-12-14T21:39:54.942Z,-1.65
2022-12-14T21:42:24.529Z,-1.62
2022-12-14T21:44:53.737Z,-1.76
2022-12-14T21:47:28.676Z,-1.79
2022-12-14T21:49:57.323Z,-1.74
2022-12-14T21:52:27.163Z,-1.76
2022-12-14T21:54:55.862Z,-1.71
2022-12-14T21:57:49.434Z,-1.62
2022-12-14T22:00:19.441Z,-1.61
2022-12-14T22:02:47.743Z,-1.57
2022-12-14T22:05:16.308Z,-1.56
2022-12-14T22:07:44.589Z,-1.53
2022-12-14T22:10:13.284Z,-1.52
2022-12-14T22:12:41.361Z,-1.52
2022-12-14T22:15:10.261Z,-1.47
2022-12-14T22:17:38.337Z,-1.50
2022-12-14T22:20:07.341Z,-1.52
2022-12-14T22:22:35.409Z,-1.51
2022-12-14T22:25:03.998Z,-1.52
2022-12-14T22:27:32.019Z,-1.52
2022-12-14T22:30:00.050Z,-1.51
2022-12-14T22:32:28.331Z,-1.57
2022-12-14T22:34:56.511Z,-1.50
2022-12-14T22:37:24.910Z,-1.55
2022-12-14T22:39:52.893Z,-1.49
2022-12-14T22:42:21.092Z,-1.55
2022-12-14T22:45:19.661Z,-1.51
2022-12-14T22:47:48.134Z,-1.45
2022-12-14T22:50:16.524Z,-1.42
2022-12-14T22:52:44.580Z,-1.46
2022-12-14T22:55:17.881Z,-1.51
2022-12-14T22:57:47.630Z,-1.42
2022-12-14T23:00:16.942Z,-1.41
2022-12-14T23:02:48.113Z,-1.37
2022-12-14T23:05:17.794Z,-1.34
2022-12-14T23:07:46.168Z,-1.32
2022-12-14T23:10:33.617Z,-1.26
2022-12-14T23:13:20.218Z,-1.25
2022-12-14T23:16:07.029Z,-1.19
2022-12-14T23:18:53.800Z,-1.39
2022-12-14T23:21:40.195Z,-1.34
2022-12-14T23:24:27.395Z,-1.33
2022-12-14T23:27:14.388Z,-1.41
2022-12-14T23:30:01.250Z,-1.47
2022-12-14T23:32:48.054Z,-1.47
2022-12-14T23:35:35.167Z,-1.51
2022-12-14T23:38:26.307Z,-1.54
2022-12-14T23:41:20.819Z,-1.52
2022-12-14T23:44:07.612Z,-1.52
2022-12-14T23:46:54.141Z,-1.47
2022-12-14T23:49:40.847Z,-1.36
2022-12-14T23:52:27.280Z,-1.33
2022-12-14T23:55:13.991Z,-1.24
2022-12-14T23:58:00.472Z,-1.29
